createdAt,value
2018-07-01T00:00:14.952Z,18.50
2018-07-01T00:02:43.505Z,18.50
2018-07-01T00:05:12.563Z,18.40
2018-07-01T00:07:41.249Z,18.30
2018-07-01T00:10:10.508Z,18.20
2018-07-01T00:12:39.285Z,18.10
2018-07-01T00:15:09.404Z,18.10
2018-07-01T00:17:38.065Z,18.10
2018-07-01T00:20:07.655Z,18.10
2018-07-01T00:22:36.619Z,18.00
2018-07-01T00:25:05.370Z,18.00
2018-07-01T00:27:34.056Z,18.00
2018-07-01T00:30:02.729Z,18.00
2018-07-01T00:32:31.378Z,18.00
2018-07-01T00:34:59.927Z,17.90
2018-07-01T00:37:28.565Z,17.80
2018-07-01T00:39:57.149Z,17.80
2018-07-01T00:42:25.725Z,17.70
2018-07-01T00:44:54.265Z,17.60
2018-07-01T00:47:22.823Z,17.60
2018-07-01T00:49:51.501Z,17.50
2018-07-01T00:52:20.112Z,17.40
2018-07-01T00:54:48.671Z,17.30
2018-07-01T00:57:17.286Z,17.10
2018-07-01T00:59:45.877Z,17.00
2018-07-01T01:02:14.481Z,16.90
2018-07-01T01:04:43.046Z,16.90
2018-07-01T01:07:11.651Z,16.80
2018-07-01T01:09:40.265Z,16.70
2018-07-01T01:12:08.968Z,16.60
2018-07-01T01:14:37.609Z,16.60
2018-07-01T01:17:06.216Z,16.50
2018-07-01T01:19:34.785Z,16.40
2018-07-01T01:22:03.385Z,16.40
2018-07-01T01:24:32.087Z,16.40
2018-07-01T01:27:00.670Z,16.30
2018-07-01T01:29:29.253Z,16.30
2018-07-01T01:31:58.017Z,16.30
2018-07-01T01:34:26.674Z,16.30
2018-07-01T01:36:55.350Z,16.40
2018-07-01T01:39:28.605Z,16.40
2018-07-01T01:44:04.388Z,16.30
2018-07-01T01:46:40.566Z,16.30
2018-07-01T01:49:16.224Z,16.20
2018-07-01T01:51:52.512Z,16.20
2018-07-01T01:54:29.369Z,16.20
2018-07-01T01:57:03.835Z,16.20
2018-07-01T01:59:37.152Z,16.20
2018-07-01T02:02:20.210Z,16.20
2018-07-01T02:04:53.586Z,16.10
2018-07-01T02:07:29.369Z,16.10
2018-07-01T02:09:57.970Z,16.10
2018-07-01T02:12:26.614Z,16.10
2018-07-01T02:14:58.990Z,16.10
2018-07-01T02:17:31.214Z,16.10
2018-07-01T02:19:59.938Z,16.10
2018-07-01T02:22:34.919Z,16.00
2018-07-01T02:25:05.838Z,15.90
2018-07-01T02:27:34.470Z,15.90
2018-07-01T02:30:03.246Z,15.80
2018-07-01T02:32:31.863Z,15.80
2018-07-01T02:35:00.445Z,15.80
2018-07-01T02:37:29.026Z,15.80
2018-07-01T02:39:57.721Z,15.90
2018-07-01T02:42:26.317Z,15.80
2018-07-01T02:44:54.876Z,15.80
2018-07-01T02:47:23.445Z,15.70
2018-07-01T02:49:52.096Z,15.80
2018-07-01T02:52:20.660Z,15.80
2018-07-01T02:54:50.996Z,15.70
2018-07-01T02:57:19.604Z,15.70
2018-07-01T02:59:48.146Z,15.70
2018-07-01T03:02:16.886Z,15.70
2018-07-01T03:04:45.473Z,15.70
2018-07-01T03:07:14.183Z,15.70
2018-07-01T03:09:42.763Z,15.60
2018-07-01T03:12:11.290Z,15.70
2018-07-01T03:14:39.919Z,15.60
2018-07-01T03:17:08.542Z,15.60
2018-07-01T03:19:37.203Z,15.70
2018-07-01T03:22:05.842Z,15.70
2018-07-01T03:24:34.530Z,15.70
2018-07-01T03:27:03.146Z,15.60
2018-07-01T03:29:31.746Z,15.60
2018-07-01T03:32:00.389Z,15.60
2018-07-01T03:34:29.049Z,15.60
2018-07-01T03:36:57.641Z,15.60
2018-07-01T03:39:26.246Z,15.60
2018-07-01T03:41:54.925Z,15.50
2018-07-01T03:44:23.523Z,15.50
2018-07-01T03:49:44.875Z,15.50
2018-07-01T03:52:13.426Z,15.50
2018-07-01T03:54:42.141Z,15.60
2018-07-01T03:57:10.780Z,15.50
2018-07-01T03:59:39.286Z,15.60
2018-07-01T04:02:07.948Z,15.60
2018-07-01T04:04:36.577Z,15.60
2018-07-01T04:07:05.291Z,15.60
2018-07-01T04:09:34.570Z,15.60
2018-07-01T04:12:03.611Z,15.60
2018-07-01T04:14:32.286Z,15.60
2018-07-01T04:17:00.869Z,15.60
2018-07-01T04:19:36.886Z,15.60
2018-07-01T04:22:07.310Z,15.70
2018-07-01T04:24:36.442Z,15.70
2018-07-01T04:27:05.351Z,15.70
2018-07-01T04:29:34.593Z,15.80
2018-07-01T04:32:03.243Z,15.90
2018-07-01T04:34:31.950Z,15.90
2018-07-01T04:37:00.639Z,16.00
2018-07-01T04:39:29.328Z,16.00
2018-07-01T04:41:57.989Z,16.00
2018-07-01T04:44:26.671Z,16.00
2018-07-01T04:46:55.330Z,16.00
2018-07-01T04:49:23.902Z,16.10
2018-07-01T04:51:52.678Z,16.10
2018-07-01T04:54:21.303Z,16.10
2018-07-01T04:56:50.055Z,16.20
2018-07-01T04:59:18.745Z,16.20
2018-07-01T05:01:47.377Z,16.30
2018-07-01T05:04:16.016Z,16.30
2018-07-01T05:06:44.702Z,16.40
2018-07-01T05:09:14.251Z,16.40
2018-07-01T05:11:43.555Z,16.50
2018-07-01T05:14:12.393Z,16.50
2018-07-01T05:16:41.096Z,16.60
2018-07-01T05:19:10.184Z,16.60
2018-07-01T05:21:38.789Z,16.70
2018-07-01T05:24:07.410Z,16.70
2018-07-01T05:26:36.015Z,16.80
2018-07-01T05:29:04.742Z,16.80
2018-07-01T05:31:33.314Z,16.80
2018-07-01T05:34:01.982Z,16.90
2018-07-01T05:36:30.560Z,17.00
2018-07-01T05:38:59.178Z,17.00
2018-07-01T05:41:27.764Z,17.10
2018-07-01T05:43:56.361Z,17.20
2018-07-01T05:46:25.007Z,17.30
2018-07-01T05:48:53.706Z,17.40
2018-07-01T05:51:22.299Z,17.50
2018-07-01T05:53:50.878Z,17.70
2018-07-01T05:56:19.456Z,17.70
2018-07-01T05:58:47.990Z,17.80
2018-07-01T06:01:16.666Z,17.90
2018-07-01T06:03:45.329Z,18.00
2018-07-01T06:06:13.937Z,17.90
2018-07-01T06:08:42.573Z,18.00
2018-07-01T06:11:11.128Z,18.10
2018-07-01T06:13:39.747Z,18.20
2018-07-01T06:16:08.373Z,18.20
2018-07-01T06:18:37.034Z,18.30
2018-07-01T06:21:05.642Z,18.40
2018-07-01T06:23:34.228Z,18.40
2018-07-01T06:26:02.809Z,18.50
2018-07-01T06:28:31.488Z,18.60
2018-07-01T06:31:00.203Z,18.70
2018-07-01T06:33:29.063Z,18.80
2018-07-01T06:35:57.912Z,18.90
2018-07-01T06:38:26.515Z,19.10
2018-07-01T06:40:55.150Z,19.20
2018-07-01T06:43:24.649Z,19.40
2018-07-01T06:45:53.358Z,19.40
2018-07-01T06:48:21.968Z,19.50
2018-07-01T06:50:50.792Z,19.60
2018-07-01T06:53:19.457Z,19.70
2018-07-01T06:55:48.011Z,19.80
2018-07-01T06:58:16.623Z,19.90
2018-07-01T07:00:45.234Z,20.10
2018-07-01T07:03:13.826Z,20.20
2018-07-01T07:05:42.386Z,20.50
2018-07-01T07:08:11.077Z,20.70
2018-07-01T07:10:39.714Z,20.90
2018-07-01T07:13:08.405Z,21.20
2018-07-01T07:15:37.069Z,21.50
2018-07-01T07:18:05.819Z,21.70
2018-07-01T07:20:34.510Z,22.00
2018-07-01T07:23:03.095Z,22.20
2018-07-01T07:25:31.771Z,22.50
2018-07-01T07:28:00.435Z,22.60
2018-07-01T07:30:29.078Z,22.80
2018-07-01T07:32:57.692Z,22.90
2018-07-01T07:35:26.631Z,23.20
2018-07-01T07:37:55.480Z,23.30
2018-07-01T07:40:24.357Z,23.40
2018-07-01T07:42:52.886Z,23.60
2018-07-01T07:45:21.578Z,23.60
2018-07-01T07:47:50.216Z,23.80
2018-07-01T07:50:18.847Z,24.00
2018-07-01T07:52:47.366Z,24.10
2018-07-01T07:55:16.038Z,24.30
2018-07-01T07:57:44.913Z,24.20
2018-07-01T08:00:13.478Z,24.20
2018-07-01T08:02:42.039Z,24.30
2018-07-01T08:05:10.746Z,24.30
2018-07-01T08:07:39.452Z,24.40
2018-07-01T08:10:08.170Z,24.70
2018-07-01T08:12:36.750Z,24.80
2018-07-01T08:15:05.646Z,24.90
2018-07-01T08:17:34.449Z,25.10
2018-07-01T08:20:03.105Z,25.30
2018-07-01T08:22:31.762Z,25.60
2018-07-01T08:25:04.919Z,25.70
2018-07-01T08:27:33.718Z,25.70
2018-07-01T08:30:13.923Z,25.90
2018-07-01T08:32:42.528Z,26.00
2018-07-01T08:35:11.178Z,26.20
2018-07-01T08:37:45.714Z,26.40
2018-07-01T08:40:14.556Z,26.50
2018-07-01T08:42:43.125Z,26.50
2018-07-01T08:45:12.659Z,26.70
2018-07-01T08:47:41.211Z,27.00
2018-07-01T08:50:09.801Z,26.90
2018-07-01T08:52:38.447Z,27.00
2018-07-01T08:55:16.580Z,27.40
2018-07-01T08:57:45.277Z,27.50
2018-07-01T09:00:13.925Z,27.50
2018-07-01T09:02:42.538Z,27.60
2018-07-01T09:05:11.123Z,27.80
2018-07-01T09:07:39.947Z,27.90
2018-07-01T09:10:08.658Z,28.00
2018-07-01T09:12:37.266Z,27.70
2018-07-01T09:15:06.418Z,27.60
2018-07-01T09:17:35.024Z,27.70
2018-07-01T09:20:03.784Z,27.60
2018-07-01T09:22:32.334Z,27.70
2018-07-01T09:25:00.936Z,28.00
2018-07-01T09:27:29.589Z,28.00
2018-07-01T09:30:00.796Z,28.00
2018-07-01T09:32:29.808Z,28.10
2018-07-01T09:34:58.448Z,28.70
2018-07-01T09:37:27.069Z,29.10
2018-07-01T09:39:56.349Z,29.20
2018-07-01T09:42:37.370Z,29.30
2018-07-01T09:45:06.215Z,29.80
2018-07-01T09:47:34.854Z,29.90
2018-07-01T09:52:57.362Z,29.50
2018-07-01T09:55:26.070Z,29.60
2018-07-01T09:57:54.585Z,29.60
2018-07-01T10:00:23.088Z,29.50
2018-07-01T10:02:51.694Z,29.60
2018-07-01T10:05:20.282Z,29.50
2018-07-01T10:07:48.850Z,29.20
2018-07-01T10:10:17.380Z,29.30
2018-07-01T10:12:46.133Z,29.40
2018-07-01T10:15:14.681Z,29.60
2018-07-01T10:17:43.311Z,30.00
2018-07-01T10:20:12.038Z,30.40
2018-07-01T10:22:40.650Z,30.60
2018-07-01T10:25:09.234Z,30.50
2018-07-01T10:27:37.882Z,30.90
2018-07-01T10:30:06.502Z,30.70
2018-07-01T10:32:35.225Z,30.60
2018-07-01T10:35:03.888Z,30.70
2018-07-01T10:37:32.421Z,31.20
2018-07-01T10:40:01.006Z,31.40
2018-07-01T10:42:29.613Z,31.70
2018-07-01T10:45:10.809Z,32.00
2018-07-01T10:47:39.374Z,32.20
2018-07-01T10:50:08.139Z,32.30
2018-07-01T10:52:36.693Z,32.60
2018-07-01T10:55:05.362Z,33.10
2018-07-01T10:57:34.016Z,33.60
2018-07-01T11:00:04.008Z,33.40
2018-07-01T11:02:32.638Z,33.60
2018-07-01T11:05:01.281Z,33.80
2018-07-01T11:07:29.841Z,33.70
2018-07-01T11:09:58.512Z,33.20
2018-07-01T11:12:27.047Z,32.70
2018-07-01T11:14:55.647Z,32.80
2018-07-01T11:17:24.358Z,33.00
2018-07-01T11:19:53.023Z,33.10
2018-07-01T11:22:21.673Z,33.40
2018-07-01T11:24:50.380Z,33.30
2018-07-01T11:27:19.198Z,32.90
2018-07-01T11:29:47.810Z,32.80
2018-07-01T11:32:18.139Z,32.90
2018-07-01T11:34:46.845Z,32.70
2018-07-01T11:37:15.406Z,32.40
2018-07-01T11:39:43.976Z,32.20
2018-07-01T11:42:12.690Z,32.50
2018-07-01T11:44:42.343Z,32.70
2018-07-01T11:47:11.035Z,32.60
2018-07-01T11:49:39.629Z,32.50
2018-07-01T11:52:11.044Z,32.60
2018-07-01T11:54:39.643Z,33.00
2018-07-01T11:57:08.193Z,33.30
2018-07-01T11:59:36.822Z,33.40
2018-07-01T12:02:05.429Z,33.40
2018-07-01T12:04:35.312Z,33.20
2018-07-01T12:07:04.055Z,33.30
2018-07-01T12:09:32.799Z,33.80
2018-07-01T12:12:01.505Z,34.00
2018-07-01T12:14:29.990Z,33.90
2018-07-01T12:16:58.625Z,33.70
2018-07-01T12:19:27.250Z,33.80
2018-07-01T12:21:55.822Z,34.10
2018-07-01T12:24:24.427Z,34.40
2018-07-01T12:27:05.558Z,34.40
2018-07-01T12:29:34.201Z,34.50
2018-07-01T12:32:02.872Z,34.50
2018-07-01T12:34:31.465Z,34.50
2018-07-01T12:37:00.070Z,34.20
2018-07-01T12:39:28.705Z,33.60
2018-07-01T12:41:57.434Z,33.50
2018-07-01T12:44:26.070Z,33.10
2018-07-01T12:46:54.727Z,32.90
2018-07-01T12:49:23.333Z,33.00
2018-07-01T12:51:51.932Z,33.10
2018-07-01T12:54:20.530Z,33.30
2018-07-01T12:56:49.145Z,33.60
2018-07-01T12:59:37.754Z,33.40
2018-07-01T13:02:06.378Z,33.30
2018-07-01T13:04:35.006Z,33.40
2018-07-01T13:07:03.747Z,33.50
2018-07-01T13:09:32.362Z,33.40
2018-07-01T13:12:01.000Z,33.10
2018-07-01T13:14:29.556Z,33.20
2018-07-01T13:16:58.181Z,33.10
2018-07-01T13:19:26.798Z,33.20
2018-07-01T13:21:55.387Z,33.40
2018-07-01T13:24:23.911Z,33.60
2018-07-01T13:26:52.534Z,33.90
2018-07-01T13:29:21.147Z,34.40
2018-07-01T13:31:49.844Z,34.70
2018-07-01T13:34:18.508Z,34.90
2018-07-01T13:36:47.118Z,34.90
2018-07-01T13:39:15.676Z,35.00
2018-07-01T13:41:44.247Z,35.60
2018-07-01T13:44:12.851Z,36.20
2018-07-01T13:46:41.546Z,36.30
2018-07-01T13:49:10.217Z,36.50
2018-07-01T13:51:38.853Z,36.50
2018-07-01T13:54:07.461Z,37.10
2018-07-01T13:56:36.343Z,37.00
2018-07-01T13:59:05.018Z,37.50
2018-07-01T14:01:33.615Z,38.00
2018-07-01T14:04:06.820Z,38.10
2018-07-01T14:06:35.726Z,38.50
2018-07-01T14:09:06.576Z,38.70
2018-07-01T14:11:35.151Z,39.20
2018-07-01T14:14:03.728Z,40.40
2018-07-01T14:16:32.352Z,41.10
2018-07-01T14:19:00.989Z,41.60
2018-07-01T14:21:29.586Z,40.70
2018-07-01T14:23:58.144Z,40.20
2018-07-01T14:26:26.678Z,39.00
2018-07-01T14:28:55.219Z,39.00
2018-07-01T14:31:23.843Z,38.50
2018-07-01T14:33:52.408Z,38.40
2018-07-01T14:36:20.946Z,38.60
2018-07-01T14:38:49.518Z,38.40
2018-07-01T14:41:18.147Z,38.40
2018-07-01T14:43:46.708Z,38.20
2018-07-01T14:46:15.397Z,38.40
2018-07-01T14:48:44.280Z,38.40
2018-07-01T14:51:12.830Z,38.50
2018-07-01T14:53:41.413Z,38.80
2018-07-01T14:56:09.973Z,38.80
2018-07-01T14:58:38.573Z,38.90
2018-07-01T15:01:07.343Z,39.00
2018-07-01T15:03:35.934Z,39.00
2018-07-01T15:06:08.434Z,39.50
2018-07-01T15:08:37.371Z,39.70
2018-07-01T15:11:06.100Z,40.20
2018-07-01T15:13:34.912Z,40.40
2018-07-01T15:16:03.556Z,40.40
2018-07-01T15:18:54.264Z,40.30
2018-07-01T15:21:22.856Z,40.10
2018-07-01T15:23:51.429Z,39.80
2018-07-01T15:26:20.043Z,39.70
2018-07-01T15:28:48.733Z,39.30
2018-07-01T15:31:17.563Z,38.90
2018-07-01T15:33:46.206Z,38.80
2018-07-01T15:36:14.916Z,38.70
2018-07-01T15:38:44.161Z,38.50
2018-07-01T15:41:12.741Z,38.50
2018-07-01T15:43:41.379Z,38.90
2018-07-01T15:46:09.935Z,39.20
2018-07-01T15:48:38.629Z,39.40
2018-07-01T15:51:07.299Z,39.70
2018-07-01T15:53:36.369Z,39.80
2018-07-01T15:56:05.529Z,40.10
2018-07-01T15:58:34.138Z,40.20
2018-07-01T16:01:02.804Z,40.30
2018-07-01T16:03:31.552Z,39.80
2018-07-01T16:06:00.341Z,39.50
2018-07-01T16:08:28.937Z,39.10
2018-07-01T16:10:57.488Z,38.80
2018-07-01T16:13:26.118Z,38.40
2018-07-01T16:15:54.989Z,38.50
2018-07-01T16:18:23.584Z,38.70
2018-07-01T16:20:52.322Z,38.80
2018-07-01T16:23:21.190Z,38.20
2018-07-01T16:25:54.998Z,37.80
2018-07-01T16:28:28.776Z,37.60
2018-07-01T16:30:57.421Z,36.90
2018-07-01T16:33:26.063Z,36.90
2018-07-01T16:35:54.678Z,36.80
2018-07-01T16:38:23.278Z,37.20
2018-07-01T16:40:51.956Z,37.70
2018-07-01T16:43:20.523Z,38.10
2018-07-01T16:45:49.250Z,38.40
2018-07-01T16:48:17.933Z,38.20
2018-07-01T16:50:46.638Z,37.30
2018-07-01T16:53:15.226Z,37.00
2018-07-01T16:55:44.516Z,36.90
2018-07-01T16:58:13.594Z,37.00
2018-07-01T17:00:42.365Z,36.80
2018-07-01T17:03:11.039Z,37.10
2018-07-01T17:05:40.268Z,37.30
2018-07-01T17:08:09.255Z,37.50
2018-07-01T17:10:38.238Z,37.10
2018-07-01T17:13:07.990Z,36.80
2018-07-01T17:15:37.350Z,36.20
2018-07-01T17:18:06.315Z,36.20
2018-07-01T17:20:35.191Z,35.70
2018-07-01T17:23:03.778Z,35.40
2018-07-01T17:25:38.349Z,35.20
2018-07-01T17:28:06.937Z,34.70
2018-07-01T17:30:35.905Z,34.40
2018-07-01T17:33:09.625Z,34.40
2018-07-01T17:35:38.189Z,34.10
2018-07-01T17:38:06.778Z,34.40
2018-07-01T17:40:35.324Z,34.40
2018-07-01T17:43:03.885Z,34.50
2018-07-01T17:45:32.433Z,34.10
2018-07-01T17:48:01.049Z,34.00
2018-07-01T17:50:29.618Z,33.80
2018-07-01T17:52:58.203Z,33.50
2018-07-01T17:55:26.804Z,33.10
2018-07-01T17:57:55.537Z,32.90
2018-07-01T18:00:24.467Z,32.70
2018-07-01T18:02:52.962Z,32.70
2018-07-01T18:05:21.523Z,32.60
2018-07-01T18:07:50.058Z,32.50
2018-07-01T18:10:18.590Z,32.20
2018-07-01T18:12:47.122Z,31.90
2018-07-01T18:15:15.720Z,31.60
2018-07-01T18:17:44.307Z,31.40
2018-07-01T18:20:12.941Z,31.10
2018-07-01T18:23:09.753Z,30.60
2018-07-01T18:25:12.343Z,30.10
2018-07-01T18:27:47.839Z,29.60
2018-07-01T18:33:01.326Z,29.40
2018-07-01T18:35:29.924Z,29.30
2018-07-01T18:37:58.530Z,29.20
2018-07-01T18:40:27.110Z,29.10
2018-07-01T18:42:55.711Z,28.90
2018-07-01T18:45:24.284Z,28.60
2018-07-01T18:47:52.882Z,28.00
2018-07-01T18:50:21.546Z,27.50
2018-07-01T18:53:02.592Z,26.80
2018-07-01T18:55:31.356Z,26.40
2018-07-01T18:58:00.014Z,26.20
2018-07-01T19:00:28.667Z,25.90
2018-07-01T19:02:57.349Z,25.70
2018-07-01T19:05:25.934Z,25.60
2018-07-01T19:07:55.036Z,25.40
2018-07-01T19:10:23.654Z,25.20
2018-07-01T19:12:52.347Z,25.10
2018-07-01T19:15:21.141Z,25.00
2018-07-01T19:17:49.797Z,24.90
2018-07-01T19:20:18.555Z,24.70
2018-07-01T19:22:47.218Z,24.60
2018-07-01T19:25:15.854Z,24.50
2018-07-01T19:27:54.514Z,24.40
2018-07-01T19:30:23.210Z,24.30
2018-07-01T19:32:51.850Z,24.10
2018-07-01T19:35:20.497Z,24.00
2018-07-01T19:37:49.100Z,23.90
2018-07-01T19:40:17.730Z,23.80
2018-07-01T19:42:48.593Z,23.80
2018-07-01T19:45:17.214Z,23.70
2018-07-01T19:47:45.833Z,23.50
2018-07-01T19:50:14.683Z,23.30
2018-07-01T19:52:43.436Z,23.10
2018-07-01T19:55:12.105Z,23.00
2018-07-01T19:57:40.719Z,22.90
2018-07-01T20:00:09.305Z,22.80
2018-07-01T20:02:37.914Z,22.70
2018-07-01T20:05:06.463Z,22.50
2018-07-01T20:07:35.462Z,22.40
2018-07-01T20:10:05.549Z,22.20
2018-07-01T20:12:34.650Z,22.10
2018-07-01T20:15:03.242Z,22.10
2018-07-01T20:17:31.918Z,22.00
2018-07-01T20:20:00.593Z,21.90
2018-07-01T20:22:29.182Z,21.70
2018-07-01T20:24:57.758Z,21.60
2018-07-01T20:27:26.381Z,21.60
2018-07-01T20:29:54.987Z,21.50
2018-07-01T20:32:23.680Z,21.50
2018-07-01T20:34:52.291Z,21.40
2018-07-01T20:37:20.927Z,21.30
2018-07-01T20:39:49.591Z,21.20
2018-07-01T20:42:18.233Z,21.10
2018-07-01T20:44:46.920Z,21.10
2018-07-01T20:47:15.474Z,21.00
2018-07-01T20:49:44.139Z,20.90
2018-07-01T20:52:12.673Z,20.90
2018-07-01T20:54:41.274Z,20.80
2018-07-01T20:57:09.956Z,20.80
2018-07-01T20:59:38.653Z,20.80
2018-07-01T21:02:07.429Z,20.80
2018-07-01T21:04:35.986Z,20.80
2018-07-01T21:07:04.653Z,20.90
2018-07-01T21:09:33.265Z,20.90
2018-07-01T21:12:01.949Z,20.80
2018-07-01T21:14:30.573Z,20.80
2018-07-01T21:16:59.216Z,20.70
2018-07-01T21:19:27.855Z,20.60
2018-07-01T21:21:56.586Z,20.60
2018-07-01T21:24:31.446Z,20.50
2018-07-01T21:27:00.014Z,20.50
2018-07-01T21:29:28.664Z,20.40
2018-07-01T21:31:57.247Z,20.40
2018-07-01T21:34:25.909Z,20.30
2018-07-01T21:36:54.728Z,20.20
2018-07-01T21:39:23.398Z,20.20
2018-07-01T21:41:52.118Z,20.10
2018-07-01T21:44:20.911Z,20.10
2018-07-01T21:46:49.579Z,20.00
2018-07-01T21:49:18.266Z,20.00
2018-07-01T21:51:46.847Z,20.00
2018-07-01T21:54:15.501Z,20.00
2018-07-01T21:56:44.490Z,20.00
2018-07-01T21:59:13.187Z,20.10
2018-07-01T22:01:41.826Z,20.10
2018-07-01T22:04:10.522Z,20.00
2018-07-01T22:06:44.382Z,20.00
2018-07-01T22:09:13.244Z,20.00
2018-07-01T22:11:59.837Z,19.90
2018-07-01T22:14:31.614Z,19.80
2018-07-01T22:17:00.644Z,19.70
2018-07-01T22:19:29.389Z,19.60
2018-07-01T22:21:58.499Z,19.50
2018-07-01T22:24:28.225Z,19.50
2018-07-01T22:26:56.830Z,19.50
2018-07-01T22:29:25.526Z,19.30
2018-07-01T22:31:54.126Z,19.30
2018-07-01T22:34:23.279Z,19.20
2018-07-01T22:36:52.218Z,19.10
2018-07-01T22:39:21.771Z,19.00
2018-07-01T22:41:51.033Z,19.00
2018-07-01T22:44:19.660Z,18.90
2018-07-01T22:46:48.846Z,18.80
2018-07-01T22:49:17.526Z,18.80
2018-07-01T22:51:46.283Z,18.70
2018-07-01T22:54:14.893Z,18.60
2018-07-01T22:56:43.493Z,18.50
2018-07-01T22:59:12.155Z,18.50
2018-07-01T23:03:48.578Z,18.40
2018-07-01T23:06:17.338Z,18.20
2018-07-01T23:08:46.278Z,18.00
2018-07-01T23:11:14.967Z,17.80
2018-07-01T23:13:43.613Z,17.70
2018-07-01T23:16:12.190Z,17.60
2018-07-01T23:18:40.820Z,17.40
2018-07-01T23:21:09.519Z,17.30
2018-07-01T23:23:38.176Z,17.20
2018-07-01T23:26:07.329Z,17.00
2018-07-01T23:28:36.028Z,16.90
2018-07-01T23:31:04.757Z,16.80
2018-07-01T23:33:33.494Z,16.60
2018-07-01T23:36:02.197Z,16.60
2018-07-01T23:38:30.942Z,16.60
2018-07-01T23:40:59.586Z,16.50
2018-07-01T23:43:28.153Z,16.50
2018-07-01T23:45:56.801Z,16.50
2018-07-01T23:48:25.477Z,16.50
2018-07-01T23:50:54.054Z,16.50
2018-07-01T23:53:22.754Z,16.40
2018-07-01T23:55:51.406Z,16.40
2018-07-01T23:58:20.054Z,16.40
